Time;durP1;ratioP1;P1;durP2;ratioP2;P2;SDS_P1;SDS_P2;PMS_P1;PMS_P2;Temp;Humidity;BMP_temperature;BMP_pressure;BME280_temperature;BME280_humidity;BME280_pressure;Samples;Min_cycle;Max_cycle;Signal;HPM_P1;HPM_P2
2022/12/04 00:02:24;;;;;;;0.10;0.10;;;14.50;69.50;;;;;;4207713;28;20058;-65
2022/12/04 00:05:08;;;;;;;1.02;1.02;;;14.50;69.70;;;;;;4207923;28;20043;-64
2022/12/04 00:07:50;;;;;;;0.00;0.00;;;14.50;70.70;;;;;;4205817;28;20062;-66
2022/12/04 00:10:33;;;;;;;1.23;1.23;;;14.40;69.80;;;;;;4191103;28;20070;-65
2022/12/04 00:13:14;;;;;;;0.20;0.20;;;14.40;69.60;;;;;;4198398;28;20159;-64
2022/12/04 00:15:55;;;;;;;0.35;0.35;;;14.30;69.30;;;;;;4191296;28;20487;-64
2022/12/04 00:18:36;;;;;;;0.15;0.15;;;14.30;70.90;;;;;;4191348;28;20063;-64
2022/12/04 00:21:19;;;;;;;0.00;0.00;;;14.20;70.40;;;;;;4191437;28;20126;-64
2022/12/04 00:24:00;;;;;;;0.50;0.50;;;14.40;70.60;;;;;;4190062;28;20109;-64
2022/12/04 00:26:41;;;;;;;0.10;0.10;;;14.40;70.10;;;;;;4193176;28;20051;-64
2022/12/04 00:29:21;;;;;;;0.00;0.00;;;14.50;69.70;;;;;;4194387;28;20059;-64
2022/12/04 00:32:03;;;;;;;0.10;0.10;;;14.60;69.00;;;;;;4177890;28;20059;-66
2022/12/04 00:34:43;;;;;;;0.25;0.25;;;14.70;68.80;;;;;;4177575;28;20685;-66
2022/12/04 00:37:26;;;;;;;1.07;1.00;;;14.80;68.10;;;;;;4177975;28;20083;-67
2022/12/04 00:40:08;;;;;;;0.50;0.50;;;14.90;67.50;;;;;;4189715;28;20066;-66
2022/12/04 00:42:49;;;;;;;0.10;0.10;;;14.90;67.10;;;;;;4194067;28;20052;-66
2022/12/04 00:45:30;;;;;;;0.20;0.20;;;14.90;66.70;;;;;;4177649;28;20179;-66
2022/12/04 00:48:11;;;;;;;2.83;0.57;;;15.00;66.80;;;;;;4177499;28;20055;-66
2022/12/04 00:50:53;;;;;;;0.00;0.00;;;15.10;66.40;;;;;;4177497;28;20122;-66
2022/12/04 00:53:35;;;;;;;0.55;0.55;;;15.20;66.40;;;;;;4192172;28;20067;-66
2022/12/04 00:56:18;;;;;;;0.52;0.52;;;15.20;66.30;;;;;;4177525;28;20063;-66
2022/12/04 00:59:00;;;;;;;0.10;0.10;;;15.30;66.10;;;;;;4177077;28;20056;-66
2022/12/04 01:01:41;;;;;;;0.10;0.10;;;15.30;66.30;;;;;;4176888;28;20145;-66
2022/12/04 01:04:22;;;;;;;0.32;0.32;;;15.30;66.00;;;;;;4177005;28;20052;-66
2022/12/04 01:07:03;;;;;;;1.95;1.85;;;15.30;65.60;;;;;;4194314;28;20051;-66
2022/12/04 01:09:46;;;;;;;0.15;0.15;;;15.20;65.30;;;;;;4197846;28;20647;-66
2022/12/04 01:12:27;;;;;;;1.48;1.17;;;15.20;66.10;;;;;;4193017;28;20408;-66
2022/12/04 01:15:09;;;;;;;0.40;0.40;;;15.20;66.30;;;;;;4192974;28;20141;-65
2022/12/04 01:17:49;;;;;;;0.43;0.43;;;15.30;65.30;;;;;;4193459;28;20051;-65
2022/12/04 01:20:30;;;;;;;0.75;0.75;;;15.30;65.10;;;;;;4192412;28;20506;-65
2022/12/04 01:23:11;;;;;;;0.90;0.90;;;15.40;65.10;;;;;;4193132;28;20127;-65
2022/12/04 01:25:56;;;;;;;3.00;1.20;;;15.40;65.40;;;;;;4194464;28;20052;-65
2022/12/04 01:28:37;;;;;;;1.00;0.95;;;15.40;65.50;;;;;;4193310;28;20359;-64
2022/12/04 01:31:19;;;;;;;0.75;0.75;;;15.40;65.40;;;;;;4193076;28;20052;-65
2022/12/04 01:34:01;;;;;;;0.22;0.22;;;15.40;65.20;;;;;;4193122;28;20520;-65
2022/12/04 01:36:42;;;;;;;0.10;0.10;;;15.40;64.90;;;;;;4193107;28;20064;-65
2022/12/04 01:39:22;;;;;;;1.00;1.00;;;15.30;65.00;;;;;;4197254;28;20169;-66
2022/12/04 01:42:05;;;;;;;0.00;0.00;;;15.30;65.00;;;;;;4194083;28;20166;-66
2022/12/04 01:45:19;;;;;;;5.45;1.40;;;15.20;64.70;;;;;;4191604;28;20089;-66
2022/12/04 01:48:08;;;;;;;0.20;0.20;;;15.20;64.90;;;;;;4192785;28;20052;-66
2022/12/04 01:50:53;;;;;;;0.10;0.10;;;15.20;65.30;;;;;;4176312;28;20555;-66
2022/12/04 01:53:37;;;;;;;0.00;0.00;;;15.20;65.60;;;;;;4176101;28;20064;-66
2022/12/04 01:56:22;;;;;;;0.10;0.10;;;15.20;66.20;;;;;;4176391;28;20059;-65
2022/12/04 01:59:06;;;;;;;0.35;0.35;;;15.30;66.30;;;;;;4191210;28;20253;-66
2022/12/04 02:01:54;;;;;;;1.08;0.90;;;15.50;66.00;;;;;;4193799;27;20376;-66
2022/12/04 02:04:36;;;;;;;0.15;0.15;;;15.50;65.40;;;;;;4183080;28;20471;-66
2022/12/04 02:07:17;;;;;;;0.05;0.05;;;15.60;65.10;;;;;;4176588;28;20047;-66
2022/12/04 02:10:02;;;;;;;0.00;0.00;;;15.60;64.90;;;;;;4181761;28;20060;-67
2022/12/04 02:12:51;;;;;;;0.00;0.00;;;15.60;65.00;;;;;;4191140;28;20067;-66
2022/12/04 02:15:42;;;;;;;0.05;0.05;;;15.60;64.70;;;;;;4191726;28;20183;-65
2022/12/04 02:18:30;;;;;;;0.57;0.57;;;15.50;64.30;;;;;;4189932;28;20475;-65
2022/12/04 02:21:20;;;;;;;1.85;1.45;;;15.50;64.40;;;;;;4190789;28;20091;-65
2022/12/04 02:24:21;;;;;;;0.13;0.13;;;15.40;64.20;;;;;;4190787;28;20510;-65
2022/12/04 02:27:04;;;;;;;0.00;0.00;;;15.40;64.30;;;;;;4198593;28;20490;-64
2022/12/04 02:29:53;;;;;;;0.00;0.00;;;15.30;64.90;;;;;;4207999;28;20047;-65
2022/12/04 02:32:41;;;;;;;0.20;0.20;;;15.30;65.80;;;;;;4202766;28;20163;-64
2022/12/04 02:35:26;;;;;;;0.30;0.30;;;15.40;66.50;;;;;;4176068;28;20584;-64
2022/12/04 02:38:13;;;;;;;0.03;0.03;;;15.40;65.40;;;;;;4192224;28;20051;-64
2022/12/04 02:40:58;;;;;;;0.00;0.00;;;15.50;64.70;;;;;;4192158;28;20177;-64
2022/12/04 02:43:43;;;;;;;1.52;1.52;;;15.50;64.80;;;;;;4191962;28;20067;-64
2022/12/04 02:46:29;;;;;;;0.00;0.00;;;15.60;64.90;;;;;;4192093;28;20129;-64
2022/12/04 02:49:14;;;;;;;0.00;0.00;;;15.60;65.00;;;;;;4196154;27;20051;-66
2022/12/04 02:51:57;;;;;;;0.10;0.10;;;15.50;64.90;;;;;;4189213;28;20379;-66
2022/12/04 02:54:41;;;;;;;0.35;0.35;;;15.50;64.80;;;;;;4175224;28;20064;-66
2022/12/04 02:57:27;;;;;;;0.57;0.40;;;15.40;64.90;;;;;;4175331;28;20407;-67
2022/12/04 03:00:09;;;;;;;0.38;0.38;;;15.30;65.10;;;;;;4175133;28;20056;-66
2022/12/04 03:02:57;;;;;;;0.10;0.10;;;15.30;65.60;;;;;;4175589;28;20047;-66
2022/12/04 03:05:41;;;;;;;0.25;0.25;;;15.30;66.30;;;;;;4201793;28;20448;-67
2022/12/04 03:08:28;;;;;;;0.10;0.10;;;15.30;66.40;;;;;;4173929;28;20118;-67
2022/12/04 03:11:09;;;;;;;0.57;0.57;;;15.50;66.10;;;;;;4189226;28;20210;-66
2022/12/04 03:13:55;;;;;;;1.88;1.77;;;15.50;65.60;;;;;;4191380;28;20047;-66
2022/12/04 03:16:39;;;;;;;0.10;0.10;;;15.50;65.10;;;;;;4174623;28;20388;-66
2022/12/04 03:19:26;;;;;;;0.00;0.00;;;15.60;64.60;;;;;;4173488;28;20055;-66
2022/12/04 03:22:12;;;;;;;0.20;0.20;;;15.60;65.00;;;;;;4174838;28;20075;-66
2022/12/04 03:24:55;;;;;;;0.40;0.40;;;15.60;64.70;;;;;;4190395;28;20803;-66
2022/12/04 03:27:44;;;;;;;1.00;1.00;;;15.60;65.90;;;;;;4191292;28;20047;-66
2022/12/04 03:30:25;;;;;;;1.85;1.08;;;15.70;65.00;;;;;;4191145;28;20149;-66
2022/12/04 03:33:10;;;;;;;0.40;0.40;;;15.60;65.20;;;;;;4191388;28;20118;-67
2022/12/04 03:35:57;;;;;;;0.73;0.50;;;15.60;64.90;;;;;;4158167;28;20048;-66
2022/12/04 03:38:43;;;;;;;0.10;0.10;;;15.60;65.10;;;;;;4158321;28;20048;-67
2022/12/04 03:41:30;;;;;;;0.57;0.57;;;15.60;65.40;;;;;;4205063;27;20067;-67
2022/12/04 03:44:15;;;;;;;4.22;1.05;;;15.50;64.70;;;;;;4173745;28;20048;-66
2022/12/04 03:47:00;;;;;;;0.00;0.00;;;15.50;64.60;;;;;;4175138;28;20138;-67
2022/12/04 03:49:46;;;;;;;2.35;2.17;;;15.50;64.90;;;;;;4175105;28;20098;-66
2022/12/04 03:52:34;;;;;;;0.52;0.52;;;15.60;64.20;;;;;;4182030;28;20121;-66
2022/12/04 03:55:21;;;;;;;0.65;0.65;;;15.60;64.30;;;;;;4207740;28;20051;-65
2022/12/04 03:58:08;;;;;;;2.88;2.75;;;15.70;64.60;;;;;;4194106;28;20106;-64
2022/12/04 04:00:51;;;;;;;0.43;0.43;;;15.70;64.90;;;;;;4191317;28;20114;-64
2022/12/04 04:03:35;;;;;;;0.82;0.82;;;15.80;64.10;;;;;;4194808;28;20048;-64
2022/12/04 04:06:21;;;;;;;0.00;0.00;;;15.80;63.10;;;;;;4177967;28;20048;-64
2022/12/04 04:09:09;;;;;;;0.45;0.45;;;15.80;63.50;;;;;;4177883;28;20056;-64
2022/12/04 04:11:55;;;;;;;0.75;0.75;;;15.80;63.20;;;;;;4178860;28;20126;-64
2022/12/04 04:26:49;;;;;;;0.43;0.43;;;15.50;63.50;;;;;;4176254;28;20051;-65
2022/12/04 04:29:30;;;;;;;2.55;1.13;;;15.30;64.20;;;;;;4191746;28;20051;-65
2022/12/04 04:32:15;;;;;;;0.85;0.85;;;15.40;64.00;;;;;;4190135;28;20387;-65
2022/12/04 04:35:01;;;;;;;1.55;1.55;;;15.40;63.70;;;;;;4194280;28;20047;-65
2022/12/04 04:37:50;;;;;;;0.22;0.22;;;15.40;63.60;;;;;;4194073;28;20089;-64
2022/12/04 04:40:36;;;;;;;0.30;0.30;;;15.40;64.50;;;;;;4196541;28;20055;-65
2022/12/04 04:43:25;;;;;;;2.08;1.92;;;15.50;63.80;;;;;;4194116;28;20533;-65
2022/12/04 04:46:11;;;;;;;1.75;1.55;;;15.60;62.90;;;;;;4193696;28;20125;-64
2022/12/04 04:48:57;;;;;;;1.00;0.65;;;15.70;62.90;;;;;;4197762;28;20047;-65
2022/12/04 04:51:38;;;;;;;0.82;0.82;;;15.80;63.10;;;;;;4176703;28;20191;-64
2022/12/04 04:54:19;;;;;;;1.55;0.28;;;15.80;63.10;;;;;;4177132;28;20075;-64
2022/12/04 04:57:00;;;;;;;0.15;0.15;;;15.90;62.80;;;;;;4177159;28;20187;-64
2022/12/04 04:59:42;;;;;;;0.00;0.00;;;15.90;62.90;;;;;;4191302;28;20185;-65
2022/12/04 05:02:25;;;;;;;0.80;0.70;;;16.00;62.20;;;;;;4193770;28;20497;-64
2022/12/04 05:05:06;;;;;;;5.10;1.02;;;16.00;62.10;;;;;;4194714;28;20149;-65
2022/12/04 05:07:47;;;;;;;0.22;0.22;;;16.10;62.40;;;;;;4201560;28;20166;-64
2022/12/04 05:10:28;;;;;;;2.33;1.40;;;16.10;62.20;;;;;;4187069;28;20399;-65
2022/12/04 05:13:11;;;;;;;0.20;0.20;;;16.10;61.90;;;;;;4192228;28;20048;-64
2022/12/04 05:15:58;;;;;;;3.25;2.92;;;16.00;62.10;;;;;;4193378;28;20201;-64
2022/12/04 05:18:39;;;;;;;0.20;0.20;;;16.00;61.60;;;;;;4193303;28;20051;-64
2022/12/04 05:21:20;;;;;;;0.30;0.30;;;15.90;61.50;;;;;;4206484;28;20050;-64
2022/12/04 05:24:01;;;;;;;0.45;0.45;;;15.80;62.00;;;;;;4210174;28;20812;-64
2022/12/04 05:26:42;;;;;;;0.00;0.00;;;15.70;62.00;;;;;;4209984;28;20066;-64
2022/12/04 05:29:23;;;;;;;0.17;0.17;;;15.70;61.70;;;;;;4209092;28;20055;-64
2022/12/04 05:32:05;;;;;;;1.80;1.70;;;15.80;61.30;;;;;;4209695;28;20346;-64
2022/12/04 05:34:47;;;;;;;0.60;0.60;;;15.80;61.00;;;;;;4208874;28;20086;-64
2022/12/04 05:37:28;;;;;;;0.08;0.08;;;15.80;60.80;;;;;;4209995;28;20161;-64
2022/12/04 05:40:10;;;;;;;2.67;2.53;;;15.90;60.50;;;;;;4201871;28;20051;-64
2022/12/04 05:42:51;;;;;;;;;;;15.90;60.10;;;;;;4209337;28;20132;-64
2022/12/04 05:45:31;;;;;;;0.00;0.00;;;15.90;60.30;;;;;;4210034;28;19942;-64
2022/12/04 05:48:14;;;;;;;0.20;0.20;;;15.90;60.60;;;;;;4209611;28;20425;-64
2022/12/04 05:50:54;;;;;;;0.20;0.20;;;16.00;60.90;;;;;;4209793;28;20435;-64
2022/12/04 05:53:35;;;;;;;3.58;0.75;;;16.10;61.10;;;;;;4191950;28;20051;-64
2022/12/04 05:56:16;;;;;;;0.45;0.45;;;16.10;61.20;;;;;;4209593;28;20054;-64
2022/12/04 05:58:58;;;;;;;0.38;0.38;;;16.10;61.20;;;;;;4208885;28;20576;-64
2022/12/04 06:01:39;;;;;;;1.20;1.20;;;16.10;60.80;;;;;;4209255;28;20253;-64
2022/12/04 06:04:21;;;;;;;0.55;0.55;;;16.00;61.10;;;;;;4210094;28;20054;-64
2022/12/04 06:07:02;;;;;;;1.13;1.13;;;16.00;61.10;;;;;;4175137;28;20051;-64
2022/12/04 06:09:42;;;;;;;1.65;1.55;;;16.00;61.50;;;;;;4184150;28;20050;-64
2022/12/04 06:12:23;;;;;;;0.05;0.05;;;16.00;61.20;;;;;;4176318;28;20071;-64
2022/12/04 06:15:05;;;;;;;0.15;0.15;;;16.10;61.20;;;;;;4176209;28;20060;-64
2022/12/04 06:17:45;;;;;;;;;;;16.00;60.40;;;;;;4188231;28;20426;-63
2022/12/04 06:20:27;;;;;;;0.38;0.38;;;16.10;60.30;;;;;;4209059;28;19976;-63
2022/12/04 06:23:08;;;;;;;0.40;0.40;;;16.10;59.80;;;;;;4209114;28;20082;-64
2022/12/04 06:25:49;;;;;;;0.00;0.00;;;16.00;60.00;;;;;;4198124;28;20384;-63
2022/12/04 06:28:30;;;;;;;2.78;2.67;;;16.00;60.30;;;;;;4192335;28;20490;-63
2022/12/04 06:31:14;;;;;;;4.38;1.00;;;16.00;60.40;;;;;;4192151;28;20109;-63
2022/12/04 06:33:57;;;;;;;1.08;1.08;;;16.00;60.30;;;;;;4192578;28;20071;-63
2022/12/04 06:36:39;;;;;;;2.05;1.70;;;16.10;60.20;;;;;;4201066;28;20054;-63
2022/12/04 06:39:20;;;;;;;0.10;0.10;;;16.00;60.40;;;;;;4209228;28;20383;-63
2022/12/04 06:42:01;;;;;;;0.68;0.68;;;16.10;60.80;;;;;;4192226;28;20433;-63
2022/12/04 06:44:42;;;;;;;1.67;1.58;;;16.10;60.10;;;;;;4192137;28;20497;-63
2022/12/04 06:47:23;;;;;;;9.30;3.80;;;16.10;59.90;;;;;;4175654;28;20072;-63
2022/12/04 06:50:05;;;;;;;1.42;1.40;;;16.00;60.20;;;;;;4189314;28;20059;-63
2022/12/04 06:52:47;;;;;;;0.20;0.20;;;16.00;60.40;;;;;;4192129;28;20458;-63
2022/12/04 06:55:28;;;;;;;0.50;0.50;;;16.00;60.60;;;;;;4193593;28;20044;-63
2022/12/04 06:58:08;;;;;;;12.25;1.80;;;16.00;60.30;;;;;;4208269;28;20055;-63
2022/12/04 07:00:49;;;;;;;0.03;0.03;;;16.10;60.30;;;;;;4186099;28;20056;-62
2022/12/04 07:03:30;;;;;;;0.00;0.00;;;16.00;61.30;;;;;;4192122;28;20055;-62
2022/12/04 07:06:13;;;;;;;0.30;0.30;;;16.10;61.40;;;;;;4192099;28;20810;-62
2022/12/04 07:09:00;;;;;;;1.23;1.23;;;16.10;60.60;;;;;;4190124;28;20051;-61
2022/12/04 07:11:43;;;;;;;1.63;1.23;;;16.10;60.20;;;;;;4192358;27;20534;-62
2022/12/04 07:14:24;;;;;;;7.97;1.88;;;16.10;60.00;;;;;;4194466;27;20052;-61
2022/12/04 07:17:05;;;;;;;2.65;0.85;;;16.10;59.70;;;;;;4173824;28;20159;-62
2022/12/04 07:19:46;;;;;;;0.00;0.00;;;16.00;59.80;;;;;;4189093;28;20059;-61
2022/12/04 07:22:27;;;;;;;0.28;0.28;;;15.90;60.10;;;;;;4191774;28;20052;-61
2022/12/04 07:25:10;;;;;;;4.85;1.98;;;15.90;60.30;;;;;;4194680;28;20520;-61
2022/12/04 07:27:51;;;;;;;0.68;0.68;;;15.90;60.10;;;;;;4206584;28;20186;-62
2022/12/04 07:30:31;;;;;;;0.85;0.85;;;15.80;60.30;;;;;;4207924;27;20584;-62
2022/12/04 07:33:13;;;;;;;0.20;0.20;;;15.80;60.10;;;;;;4201787;27;20075;-61
2022/12/04 07:35:58;;;;;;;0.70;0.70;;;15.70;60.30;;;;;;4175862;28;20529;-61
2022/12/04 07:38:38;;;;;;;0.85;0.60;;;15.70;60.20;;;;;;4178732;28;20423;-61
2022/12/04 07:41:21;;;;;;;0.10;0.10;;;15.60;60.70;;;;;;4193568;28;20511;-61
2022/12/04 07:44:02;;;;;;;0.40;0.40;;;15.60;60.90;;;;;;4193739;28;20059;-62
2022/12/04 07:46:43;;;;;;;;;;;15.60;60.90;;;;;;4195576;28;20079;-64
2022/12/04 07:49:23;;;;;;;0.00;0.00;;;15.60;60.60;;;;;;4207273;27;20131;-64
2022/12/04 07:52:05;;;;;;;0.75;0.75;;;15.60;60.80;;;;;;4195256;28;20049;-64
2022/12/04 07:54:46;;;;;;;0.00;0.00;;;15.70;60.30;;;;;;4194332;28;20059;-64
2022/12/04 07:57:29;;;;;;;1.98;1.05;;;15.70;60.20;;;;;;4194698;28;20049;-62
2022/12/04 08:00:11;;;;;;;1.67;1.58;;;15.70;59.80;;;;;;4193195;28;20068;-61
2022/12/04 08:02:52;;;;;;;0.00;0.00;;;15.60;60.00;;;;;;4185918;28;20060;-61
2022/12/04 08:05:33;;;;;;;0.80;0.55;;;15.60;60.60;;;;;;4161768;28;20053;-61
2022/12/04 08:08:14;;;;;;;0.47;0.47;;;15.50;61.60;;;;;;4161692;28;20057;-61
2022/12/04 08:10:55;;;;;;;0.75;0.75;;;15.40;64.40;;;;;;4184446;28;20518;-61
2022/12/04 08:13:37;;;;;;;1.17;1.13;;;15.30;66.60;;;;;;4178659;28;20052;-61
2022/12/04 08:16:18;;;;;;;0.85;0.85;;;15.30;66.60;;;;;;4168802;28;20051;-62
2022/12/04 08:19:00;;;;;;;0.00;0.00;;;15.40;66.10;;;;;;4161271;28;20051;-62
2022/12/04 08:21:41;;;;;;;2.35;1.55;;;15.50;65.10;;;;;;4178019;28;20064;-64
2022/12/04 08:24:22;;;;;;;1.88;1.77;;;15.50;64.00;;;;;;4198517;27;20097;-63
2022/12/04 08:27:03;;;;;;;1.98;1.88;;;15.60;63.00;;;;;;4206406;27;20076;-64
2022/12/04 08:29:45;;;;;;;3.22;1.63;;;15.60;62.60;;;;;;4178010;28;20072;-64
2022/12/04 08:32:26;;;;;;;2.05;0.63;;;15.70;62.00;;;;;;4185921;28;20455;-64
2022/12/04 08:35:08;;;;;;;0.75;0.75;;;15.70;61.40;;;;;;4188636;28;20210;-64
2022/12/04 08:37:48;;;;;;;1.05;1.02;;;15.80;61.00;;;;;;4194302;28;20039;-64
2022/12/04 08:40:29;;;;;;;0.05;0.05;;;15.90;60.40;;;;;;4193696;28;20067;-64
2022/12/04 08:43:10;;;;;;;0.00;0.00;;;15.90;60.00;;;;;;4194143;28;20083;-64
2022/12/04 08:45:57;;;;;;;0.93;0.93;;;16.00;59.80;;;;;;4198998;27;20051;-64
2022/12/04 08:48:39;;;;;;;2.67;1.45;;;16.00;59.70;;;;;;4184128;28;20075;-64
2022/12/04 08:51:21;;;;;;;4.82;1.45;;;16.00;59.20;;;;;;4173681;28;20048;-64
2022/12/04 08:54:04;;;;;;;0.47;0.47;;;16.00;59.50;;;;;;4175058;28;20102;-61
2022/12/04 08:56:45;;;;;;;0.00;0.00;;;16.00;59.10;;;;;;4185778;28;20052;-61
2022/12/04 08:59:26;;;;;;;0.55;0.52;;;15.90;59.10;;;;;;4194953;27;20055;-61
2022/12/04 09:02:09;;;;;;;0.30;0.30;;;15.90;59.30;;;;;;4209935;27;20055;-62
2022/12/04 09:04:50;;;;;;;0.22;0.22;;;15.90;59.60;;;;;;4176993;28;20052;-61
2022/12/04 09:07:30;;;;;;;0.00;0.00;;;15.80;59.60;;;;;;4192075;28;20074;-62
2022/12/04 09:10:12;;;;;;;0.98;0.98;;;15.80;59.60;;;;;;4196586;28;20092;-61
2022/12/04 09:12:53;;;;;;;0.00;0.00;;;15.80;59.50;;;;;;4184249;28;20048;-62
2022/12/04 09:15:34;;;;;;;0.80;0.80;;;15.70;59.60;;;;;;4192916;28;20063;-61
2022/12/04 09:18:17;;;;;;;;;;;15.70;59.70;;;;;;4160397;28;20056;-61
2022/12/04 09:20:59;;;;;;;0.45;0.45;;;15.70;59.60;;;;;;4180276;28;20053;-61
2022/12/04 09:23:40;;;;;;;2.28;1.02;;;15.70;59.80;;;;;;4179184;28;20507;-61
2022/12/04 09:26:24;;;;;;;6.30;1.13;;;15.60;59.90;;;;;;4176648;28;20051;-63
2022/12/04 09:29:06;;;;;;;1.13;1.10;;;15.50;60.30;;;;;;4173890;28;20063;-64
2022/12/04 09:31:47;;;;;;;0.75;0.75;;;15.50;60.30;;;;;;4175146;28;20507;-63
2022/12/04 09:34:30;;;;;;;0.10;0.10;;;15.50;61.30;;;;;;4176313;28;20086;-63
2022/12/04 09:37:10;;;;;;;0.25;0.25;;;15.60;60.30;;;;;;4176614;28;20404;-64
2022/12/04 09:39:51;;;;;;;0.00;0.00;;;15.70;59.50;;;;;;4204671;28;20059;-63
2022/12/04 09:42:41;;;;;;;0.38;0.38;;;16.00;58.70;;;;;;4201717;28;20509;-64
2022/12/04 09:45:25;;;;;;;0.93;0.65;;;16.40;57.80;;;;;;4192917;28;20050;-63
2022/12/04 09:48:11;;;;;;;3.33;3.03;;;16.80;57.20;;;;;;4208423;28;20050;-63
2022/12/04 09:50:54;;;;;;;0.50;0.50;;;17.20;55.60;;;;;;4194704;28;20058;-64
2022/12/04 09:53:43;;;;;;;1.13;1.10;;;17.60;54.80;;;;;;4192944;28;20415;-63
2022/12/04 09:56:27;;;;;;;0.10;0.10;;;17.90;53.90;;;;;;4192646;28;20055;-64
2022/12/04 09:59:14;;;;;;;0.20;0.20;;;18.20;53.30;;;;;;4190679;28;20499;-64
2022/12/04 10:02:02;;;;;;;0.25;0.25;;;18.50;52.40;;;;;;4192894;28;20081;-64
2022/12/04 10:04:43;;;;;;;0.00;0.00;;;18.80;52.10;;;;;;4195827;28;20051;-65
2022/12/04 10:07:32;;;;;;;1.15;1.15;;;18.90;51.50;;;;;;4185650;28;20056;-65
2022/12/04 10:10:23;;;;;;;0.57;0.57;;;19.10;51.40;;;;;;4191090;28;20051;-65
2022/12/04 10:13:17;;;;;;;0.85;0.85;;;19.20;51.10;;;;;;4191321;28;20523;-65
2022/12/04 10:16:07;;;;;;;0.30;0.30;;;19.30;51.10;;;;;;4192256;28;20049;-64
2022/12/04 10:18:55;;;;;;;1.58;1.55;;;19.20;50.80;;;;;;4194756;28;20335;-65
2022/12/04 10:21:45;;;;;;;3.60;1.15;;;19.10;50.70;;;;;;4196702;28;20202;-65
2022/12/04 10:24:40;;;;;;;1.15;1.15;;;18.90;51.00;;;;;;4191688;28;20133;-66
2022/12/04 10:27:26;;;;;;;2.90;1.63;;;18.70;51.60;;;;;;4191479;28;20056;-65
2022/12/04 10:30:16;;;;;;;0.40;0.40;;;18.60;52.10;;;;;;4191487;28;20052;-64
2022/12/04 10:33:03;;;;;;;1.10;1.10;;;18.50;52.10;;;;;;4193291;28;20052;-64
2022/12/04 10:35:48;;;;;;;0.15;0.15;;;18.40;52.30;;;;;;4193959;28;20051;-65
2022/12/04 10:38:37;;;;;;;0.73;0.73;;;18.40;52.20;;;;;;4175281;28;20503;-65
2022/12/04 10:41:27;;;;;;;0.22;0.22;;;18.40;51.80;;;;;;4190145;28;20483;-65
2022/12/04 10:44:12;;;;;;;0.15;0.15;;;18.50;51.70;;;;;;4191376;28;20406;-65
2022/12/04 10:46:58;;;;;;;0.00;0.00;;;18.50;51.60;;;;;;4192023;28;20388;-65
2022/12/04 10:49:39;;;;;;;0.40;0.40;;;18.60;51.40;;;;;;4174493;28;20174;-64
2022/12/04 10:52:20;;;;;;;;;;;18.60;50.90;;;;;;4175837;28;20055;-67
2022/12/04 10:55:04;;;;;;;0.95;0.95;;;18.60;51.00;;;;;;4191127;28;19931;-66
2022/12/04 10:57:46;;;;;;;0.10;0.10;;;18.60;50.90;;;;;;4192308;28;20062;-65
2022/12/04 11:00:30;;;;;;;0.00;0.00;;;18.70;50.60;;;;;;4208594;28;20047;-65
2022/12/04 11:03:24;;;;;;;0.25;0.25;;;18.70;50.60;;;;;;4194894;28;20093;-65
2022/12/04 11:06:08;;;;;;;1.13;0.52;;;18.70;50.40;;;;;;4189499;28;20052;-65
2022/12/04 11:08:51;;;;;;;9.18;1.95;;;18.70;50.60;;;;;;4174773;28;20804;-66
2022/12/04 11:11:34;;;;;;;0.05;0.05;;;18.70;50.80;;;;;;4186328;28;20044;-65
2022/12/04 11:14:18;;;;;;;0.00;0.00;;;18.70;51.10;;;;;;4175568;28;20060;-65
2022/12/04 11:17:02;;;;;;;1.52;1.33;;;18.60;51.40;;;;;;4174242;28;20064;-65
2022/12/04 11:19:42;;;;;;;0.00;0.00;;;18.60;51.50;;;;;;4174487;28;20059;-66
2022/12/04 11:22:23;;;;;;;0.10;0.10;;;18.50;51.60;;;;;;4190331;28;20047;-66
2022/12/04 11:25:05;;;;;;;0.00;0.00;;;18.40;51.90;;;;;;4174665;28;20056;-65
2022/12/04 11:27:47;;;;;;;0.28;0.28;;;18.30;52.10;;;;;;4186579;28;20125;-64
2022/12/04 11:30:34;;;;;;;5.47;2.92;;;18.20;52.60;;;;;;4193248;28;20055;-65
2022/12/04 11:33:18;;;;;;;3.35;0.88;;;18.20;53.20;;;;;;4191619;28;20063;-64
2022/12/04 11:36:03;;;;;;;0.00;0.00;;;18.20;54.50;;;;;;4195871;28;20056;-62
2022/12/04 11:38:44;;;;;;;0.98;0.98;;;18.30;53.80;;;;;;4177974;28;20122;-64
2022/12/04 11:41:27;;;;;;;0.65;0.65;;;18.30;53.90;;;;;;4176599;28;20070;-65
2022/12/04 11:44:23;;;;;;;0.10;0.10;;;18.40;53.80;;;;;;4188525;28;20047;-65
2022/12/04 11:47:15;;;;;;;1.05;1.05;;;18.50;53.60;;;;;;4187622;28;20138;-65
2022/12/04 11:50:10;;;;;;;4.47;2.08;;;18.50;53.40;;;;;;4178683;28;20077;-65
2022/12/04 11:53:06;;;;;;;1.23;1.23;;;18.60;53.20;;;;;;4174972;28;20052;-65
2022/12/04 11:56:13;;;;;;;0.10;0.10;;;18.70;53.30;;;;;;4179384;28;20140;-65
2022/12/04 11:59:13;;;;;;;0.00;0.00;;;18.70;52.90;;;;;;4181275;28;20059;-65
2022/12/04 12:02:03;;;;;;;0.65;0.65;;;18.80;53.10;;;;;;4175545;28;20079;-65
2022/12/04 12:05:11;;;;;;;1.17;1.17;;;18.80;52.80;;;;;;4172636;28;20373;-65
2022/12/04 12:07:59;;;;;;;0.00;0.00;;;18.80;53.10;;;;;;4171192;28;20087;-63
2022/12/04 12:10:51;;;;;;;0.00;0.00;;;18.90;53.30;;;;;;4178005;28;22503;-66
2022/12/04 12:13:43;;;;;;;0.77;0.77;;;18.90;54.10;;;;;;4188628;28;20079;-66
2022/12/04 12:16:31;;;;;;;0.28;0.28;;;18.90;53.80;;;;;;4187725;28;20059;-65
2022/12/04 12:19:33;;;;;;;0.00;0.00;;;18.80;54.00;;;;;;4188312;28;20098;-64
2022/12/04 12:22:28;;;;;;;0.00;0.00;;;18.80;54.00;;;;;;4173460;27;20106;-63
2022/12/04 12:25:19;;;;;;;16.45;2.45;;;18.80;54.30;;;;;;4183380;28;20062;-64
2022/12/04 12:28:16;;;;;;;0.00;0.00;;;18.80;54.20;;;;;;4183473;28;20082;-64
2022/12/04 12:31:26;;;;;;;0.25;0.25;;;18.80;54.00;;;;;;4170646;28;20163;-65
2022/12/04 12:34:11;;;;;;;0.08;0.08;;;18.90;53.80;;;;;;4179867;28;20461;-64
2022/12/04 12:36:54;;;;;;;0.35;0.35;;;18.90;53.60;;;;;;4178388;28;20130;-64
2022/12/04 12:39:48;;;;;;;0.00;0.00;;;19.00;53.40;;;;;;4176251;27;20183;-65
2022/12/04 12:42:32;;;;;;;0.22;0.22;;;19.10;53.20;;;;;;4190602;28;20059;-64
2022/12/04 12:45:23;;;;;;;8.57;3.10;;;19.10;53.10;;;;;;4174978;28;20143;-64
2022/12/04 12:48:10;;;;;;;0.00;0.00;;;19.20;53.10;;;;;;4178126;28;20064;-63
2022/12/04 12:50:56;;;;;;;3.50;1.08;;;19.20;52.90;;;;;;4190537;28;20055;-65
2022/12/04 12:54:01;;;;;;;2.53;1.17;;;19.20;52.60;;;;;;4178971;28;20072;-67
2022/12/04 12:56:47;;;;;;;0.10;0.10;;;19.30;52.20;;;;;;4180740;27;20047;-64
2022/12/04 12:59:31;;;;;;;0.00;0.00;;;19.30;52.30;;;;;;4178869;28;20064;-64
2022/12/04 13:02:22;;;;;;;0.05;0.05;;;19.30;52.70;;;;;;4172743;28;20052;-65
2022/12/04 13:05:08;;;;;;;0.00;0.00;;;19.20;52.50;;;;;;4176556;28;20646;-64
2022/12/04 13:07:55;;;;;;;22.52;1.42;;;19.20;52.60;;;;;;4174818;28;20060;-64
2022/12/04 13:10:42;;;;;;;0.03;0.03;;;19.10;53.00;;;;;;4181119;28;20483;-64
2022/12/04 13:13:26;;;;;;;0.20;0.20;;;19.00;53.10;;;;;;4176132;27;20059;-63
2022/12/04 13:16:14;;;;;;;0.25;0.25;;;18.90;53.10;;;;;;4173037;28;20486;-64
2022/12/04 13:19:06;;;;;;;0.00;0.00;;;18.90;53.20;;;;;;4186517;28;20102;-65
2022/12/04 13:21:55;;;;;;;0.20;0.20;;;18.90;53.50;;;;;;4172409;28;20056;-64
2022/12/04 13:24:58;;;;;;;0.40;0.40;;;18.90;53.20;;;;;;4184466;28;20056;-65
2022/12/04 13:27:49;;;;;;;0.65;0.65;;;18.90;53.20;;;;;;4190227;28;20190;-64
2022/12/04 13:30:42;;;;;;;0.52;0.52;;;18.90;53.20;;;;;;4181281;28;20059;-64
2022/12/04 13:33:45;;;;;;;4.68;0.95;;;18.90;53.10;;;;;;4181873;27;20051;-63
2022/12/04 13:36:41;;;;;;;1.90;1.10;;;19.00;53.30;;;;;;4184842;28;20175;-64
2022/12/04 13:40:07;;;;;;;0.95;0.95;;;19.00;53.20;;;;;;4178058;28;20046;-63
2022/12/04 13:42:48;;;;;;;0.95;0.95;;;19.00;52.70;;;;;;4180747;28;20492;-65
2022/12/04 13:45:33;;;;;;;0.10;0.10;;;19.10;52.70;;;;;;4178441;28;20047;-65
2022/12/04 13:48:14;;;;;;;0.13;0.13;;;19.10;52.70;;;;;;4174381;28;20642;-63
2022/12/04 13:51:03;;;;;;;13.27;3.08;;;19.10;53.40;;;;;;4174286;28;20052;-63
2022/12/04 13:53:44;;;;;;;0.05;0.05;;;19.10;52.90;;;;;;4184560;28;20058;-63
2022/12/04 13:56:28;;;;;;;1.60;1.50;;;19.20;52.50;;;;;;4183043;28;20060;-63
2022/12/04 13:59:22;;;;;;;2.08;1.98;;;19.20;52.50;;;;;;4181925;28;20055;-63
2022/12/04 14:02:26;;;;;;;1.60;1.50;;;19.20;52.10;;;;;;4183384;28;20083;-63
2022/12/04 14:05:10;;;;;;;0.38;0.38;;;19.20;52.20;;;;;;4172127;28;20067;-63
2022/12/04 14:08:00;;;;;;;0.35;0.35;;;19.20;52.00;;;;;;4177332;28;20632;-63
2022/12/04 14:10:58;;;;;;;1.02;0.82;;;19.10;52.20;;;;;;4182906;28;20056;-63
2022/12/04 14:13:46;;;;;;;0.30;0.30;;;19.10;52.40;;;;;;4174333;27;20076;-64
2022/12/04 14:16:32;;;;;;;0.43;0.43;;;19.10;52.60;;;;;;4162898;28;20428;-64
2022/12/04 14:19:29;;;;;;;0.45;0.45;;;19.10;52.70;;;;;;4158394;28;20052;-63
2022/12/04 14:22:26;;;;;;;0.08;0.08;;;19.10;52.70;;;;;;4160827;28;20064;-62
2022/12/04 14:25:21;;;;;;;0.82;0.82;;;19.10;52.20;;;;;;4162359;28;20590;-63
2022/12/04 14:28:14;;;;;;;0.25;0.25;;;19.00;52.30;;;;;;4168162;28;20059;-62
2022/12/04 14:31:13;;;;;;;1.25;1.20;;;19.00;52.70;;;;;;4157876;28;20068;-62
2022/12/04 14:33:58;;;;;;;0.65;0.65;;;18.80;52.70;;;;;;4170470;28;20059;-62